Cincinnati, OH

6:27 AM EST on February 07, 2016 (GMT -0500)
Mt Adams | | Change Station
CLOSE
Current Station
Personal Weather Station
Location: Cincinnati, OH
Elevation: 797 ft
Nearby Weather Stations

Elev 797 ft 39.11 °N, 84.50 °W | Updated 41 seconds ago

Clear
Clear
31.6 °F
Feels Like 27 °F
N
4.2
Wind Variable Wind from WSW
Gusts 4.2 mph

Today
High -- | Low -- °F
--% Chance of Precip.
Yesterday
High -- | Low -- °F
Precip. -- in
Pressure 30.17 in
Visibility 8.0 miles
Clouds Clear
Windchill 27 °F
Dew Point 26 °F
Humidity 78%
Rainfall 0.00 in
Snow Depth Not available.
7:39 AM 6:05 PM
Waning Crescent, 2% visible
METAR KLUK 071053Z AUTO 00000KT 8SM CLR M04/M05 A3015 RMK AO2 SLP215 I1000 T10441050
Pressure 30.17 in
Visibility 8.0 miles
Clouds Clear
Windchill 27 °F
Dew Point 26 °F
Humidity 78%
Rainfall 0.00 in
Snow Depth Not available.
7:39 AM 6:05 PM
Waning Crescent, 2% visible
METAR KLUK 071053Z AUTO 00000KT 8SM CLR M04/M05 A3015 RMK AO2 SLP215 I1000 T10441050

10-Day Weather Forecast

Almanac

Astronomy

Feb. 07, 2016 Rise Set
Actual Time
Civil Twilight
Nautical Twilight
Astronomical Twilight
Moon
Length of Visible Light
Length of Day
Tomorrow will be .
, % of the Moon is Illuminated

Today's Extremes

State Highs State Lows

Community

WunderPhotos

Upload Photos

1,891,170 photos uploaded!

WunderBlog® & News

Nearby

Air Quality

  Air Quality AQ Index Pollutant
Not available.

Snow Depth

Station Depth Elevation

Earthquake Activity

City Distance Mag. Time & Date
Minimum magnitude displayed is 2.5.

Coastal Water Temperatures

Place Temperature

Stations

Nearby Weather Stations

Station Location Temp. Windchill Dew Point Humidity Wind Precip. Elev Updated Type
                   

Watches & Warnings

There are currently no watches in effect.